sensor_id;sensor_type;location;lat;lon;timestamp;P1;durP1;ratioP1;P2;durP2;ratioP2
13520;SDS011;6832;51.186;3.236;2023-04-28T00:01:32;39.63;;;11.03;;
13520;SDS011;6832;51.186;3.236;2023-04-28T00:03:58;46.40;;;11.00;;
13520;SDS011;6832;51.186;3.236;2023-04-28T00:06:25;40.60;;;11.43;;
13520;SDS011;6832;51.186;3.236;2023-04-28T00:08:52;45.83;;;12.27;;
13520;SDS011;6832;51.186;3.236;2023-04-28T00:11:19;46.90;;;12.30;;
13520;SDS011;6832;51.186;3.236;2023-04-28T00:13:47;38.43;;;10.93;;
13520;SDS011;6832;51.186;3.236;2023-04-28T00:16:14;37.47;;;11.60;;
13520;SDS011;6832;51.186;3.236;2023-04-28T00:18:43;39.07;;;11.27;;
13520;SDS011;6832;51.186;3.236;2023-04-28T00:21:09;37.13;;;10.43;;
13520;SDS011;6832;51.186;3.236;2023-04-28T00:23:36;43.67;;;11.10;;
13520;SDS011;6832;51.186;3.236;2023-04-28T00:26:03;36.80;;;10.47;;
13520;SDS011;6832;51.186;3.236;2023-04-28T00:28:30;31.97;;;10.90;;
13520;SDS011;6832;51.186;3.236;2023-04-28T00:30:57;31.87;;;9.97;;
13520;SDS011;6832;51.186;3.236;2023-04-28T00:33:25;35.37;;;10.10;;
13520;SDS011;6832;51.186;3.236;2023-04-28T00:35:58;35.97;;;11.03;;
13520;SDS011;6832;51.186;3.236;2023-04-28T00:38:25;38.90;;;9.90;;
13520;SDS011;6832;51.186;3.236;2023-04-28T00:40:52;55.50;;;12.33;;
13520;SDS011;6832;51.186;3.236;2023-04-28T00:43:19;37.70;;;10.00;;
13520;SDS011;6832;51.186;3.236;2023-04-28T00:45:47;49.53;;;11.03;;
13520;SDS011;6832;51.186;3.236;2023-04-28T00:48:15;43.20;;;10.53;;
13520;SDS011;6832;51.186;3.236;2023-04-28T00:50:42;40.57;;;10.13;;
13520;SDS011;6832;51.186;3.236;2023-04-28T00:53:11;52.47;;;11.57;;
13520;SDS011;6832;51.186;3.236;2023-04-28T00:55:39;43.60;;;10.90;;
13520;SDS011;6832;51.186;3.236;2023-04-28T00:58:12;54.70;;;12.10;;
13520;SDS011;6832;51.186;3.236;2023-04-28T01:00:39;41.67;;;10.63;;
13520;SDS011;6832;51.186;3.236;2023-04-28T01:03:06;46.10;;;11.57;;
13520;SDS011;6832;51.186;3.236;2023-04-28T01:05:33;52.43;;;11.27;;
13520;SDS011;6832;51.186;3.236;2023-04-28T01:08:01;35.93;;;10.13;;
13520;SDS011;6832;51.186;3.236;2023-04-28T01:10:30;31.20;;;10.50;;
13520;SDS011;6832;51.186;3.236;2023-04-28T01:12:57;35.53;;;10.43;;
13520;SDS011;6832;51.186;3.236;2023-04-28T01:15:27;35.87;;;10.53;;
13520;SDS011;6832;51.186;3.236;2023-04-28T01:17:54;35.73;;;9.80;;
13520;SDS011;6832;51.186;3.236;2023-04-28T01:20:21;36.33;;;10.63;;
13520;SDS011;6832;51.186;3.236;2023-04-28T01:22:48;29.83;;;9.70;;
13520;SDS011;6832;51.186;3.236;2023-04-28T01:25:18;42.50;;;10.80;;
13520;SDS011;6832;51.186;3.236;2023-04-28T01:27:44;66.50;;;12.57;;
13520;SDS011;6832;51.186;3.236;2023-04-28T01:30:11;62.00;;;12.03;;
13520;SDS011;6832;51.186;3.236;2023-04-28T01:32:38;42.20;;;10.97;;
13520;SDS011;6832;51.186;3.236;2023-04-28T01:35:05;36.50;;;10.23;;
13520;SDS011;6832;51.186;3.236;2023-04-28T01:37:33;57.37;;;12.17;;
13520;SDS011;6832;51.186;3.236;2023-04-28T01:40:00;56.00;;;11.83;;
13520;SDS011;6832;51.186;3.236;2023-04-28T01:42:28;47.07;;;11.37;;
13520;SDS011;6832;51.186;3.236;2023-04-28T01:44:55;37.40;;;9.40;;
13520;SDS011;6832;51.186;3.236;2023-04-28T01:47:22;46.30;;;11.23;;
13520;SDS011;6832;51.186;3.236;2023-04-28T01:49:52;34.27;;;9.73;;
13520;SDS011;6832;51.186;3.236;2023-04-28T01:52:19;38.07;;;9.93;;
13520;SDS011;6832;51.186;3.236;2023-04-28T01:54:48;41.50;;;10.57;;
13520;SDS011;6832;51.186;3.236;2023-04-28T01:57:15;43.80;;;11.30;;
13520;SDS011;6832;51.186;3.236;2023-04-28T01:59:44;48.00;;;11.27;;
13520;SDS011;6832;51.186;3.236;2023-04-28T02:02:11;38.90;;;10.47;;
13520;SDS011;6832;51.186;3.236;2023-04-28T02:04:38;37.77;;;10.10;;
13520;SDS011;6832;51.186;3.236;2023-04-28T02:07:05;39.20;;;10.37;;
13520;SDS011;6832;51.186;3.236;2023-04-28T02:09:32;44.00;;;9.83;;
13520;SDS011;6832;51.186;3.236;2023-04-28T02:11:59;37.80;;;10.07;;
13520;SDS011;6832;51.186;3.236;2023-04-28T02:14:26;37.07;;;10.40;;
13520;SDS011;6832;51.186;3.236;2023-04-28T02:16:55;34.97;;;10.63;;
13520;SDS011;6832;51.186;3.236;2023-04-28T02:19:22;43.97;;;10.77;;
13520;SDS011;6832;51.186;3.236;2023-04-28T02:21:49;41.83;;;10.33;;
13520;SDS011;6832;51.186;3.236;2023-04-28T02:24:16;39.33;;;10.50;;
13520;SDS011;6832;51.186;3.236;2023-04-28T02:26:43;47.03;;;11.17;;
13520;SDS011;6832;51.186;3.236;2023-04-28T02:29:09;41.63;;;10.60;;
13520;SDS011;6832;51.186;3.236;2023-04-28T02:31:37;42.67;;;10.87;;
13520;SDS011;6832;51.186;3.236;2023-04-28T02:34:05;39.70;;;10.13;;
13520;SDS011;6832;51.186;3.236;2023-04-28T02:36:32;35.93;;;9.77;;
13520;SDS011;6832;51.186;3.236;2023-04-28T02:38:59;56.67;;;12.10;;
13520;SDS011;6832;51.186;3.236;2023-04-28T02:41:26;44.03;;;11.23;;
13520;SDS011;6832;51.186;3.236;2023-04-28T02:43:55;35.10;;;10.10;;
13520;SDS011;6832;51.186;3.236;2023-04-28T02:46:22;68.47;;;12.87;;
13520;SDS011;6832;51.186;3.236;2023-04-28T02:48:49;41.23;;;11.00;;
13520;SDS011;6832;51.186;3.236;2023-04-28T02:51:17;43.33;;;10.73;;
13520;SDS011;6832;51.186;3.236;2023-04-28T02:53:44;53.13;;;11.27;;
13520;SDS011;6832;51.186;3.236;2023-04-28T02:56:11;34.13;;;10.20;;
13520;SDS011;6832;51.186;3.236;2023-04-28T02:58:38;43.73;;;10.97;;
13520;SDS011;6832;51.186;3.236;2023-04-28T03:01:05;41.67;;;10.77;;
13520;SDS011;6832;51.186;3.236;2023-04-28T03:03:32;47.37;;;11.13;;
13520;SDS011;6832;51.186;3.236;2023-04-28T03:05:59;63.93;;;12.40;;
13520;SDS011;6832;51.186;3.236;2023-04-28T03:08:27;54.00;;;12.33;;
13520;SDS011;6832;51.186;3.236;2023-04-28T03:10:54;52.00;;;11.87;;
13520;SDS011;6832;51.186;3.236;2023-04-28T03:13:21;41.50;;;10.70;;
13520;SDS011;6832;51.186;3.236;2023-04-28T03:15:48;43.63;;;11.13;;
13520;SDS011;6832;51.186;3.236;2023-04-28T03:18:15;41.03;;;10.83;;
13520;SDS011;6832;51.186;3.236;2023-04-28T03:20:42;39.30;;;11.07;;
13520;SDS011;6832;51.186;3.236;2023-04-28T03:23:09;46.23;;;10.83;;
13520;SDS011;6832;51.186;3.236;2023-04-28T03:25:38;34.67;;;10.13;;
13520;SDS011;6832;51.186;3.236;2023-04-28T03:28:05;35.80;;;10.03;;
13520;SDS011;6832;51.186;3.236;2023-04-28T03:30:32;56.97;;;12.80;;
13520;SDS011;6832;51.186;3.236;2023-04-28T03:32:59;42.97;;;10.97;;
13520;SDS011;6832;51.186;3.236;2023-04-28T03:35:25;43.90;;;11.27;;
13520;SDS011;6832;51.186;3.236;2023-04-28T03:37:52;45.90;;;11.60;;
13520;SDS011;6832;51.186;3.236;2023-04-28T03:40:19;34.27;;;10.57;;
13520;SDS011;6832;51.186;3.236;2023-04-28T03:42:51;42.77;;;11.43;;
13520;SDS011;6832;51.186;3.236;2023-04-28T03:45:18;37.40;;;10.93;;
13520;SDS011;6832;51.186;3.236;2023-04-28T03:47:45;34.63;;;11.10;;
13520;SDS011;6832;51.186;3.236;2023-04-28T03:50:13;40.07;;;11.33;;
13520;SDS011;6832;51.186;3.236;2023-04-28T03:52:40;29.17;;;9.53;;
13520;SDS011;6832;51.186;3.236;2023-04-28T03:55:07;43.47;;;11.20;;
13520;SDS011;6832;51.186;3.236;2023-04-28T03:57:35;40.03;;;10.93;;
13520;SDS011;6832;51.186;3.236;2023-04-28T04:00:04;41.93;;;11.97;;
13520;SDS011;6832;51.186;3.236;2023-04-28T04:02:31;43.77;;;11.53;;
13520;SDS011;6832;51.186;3.236;2023-04-28T04:04:58;42.50;;;11.13;;
13520;SDS011;6832;51.186;3.236;2023-04-28T04:07:25;52.37;;;12.40;;
13520;SDS011;6832;51.186;3.236;2023-04-28T04:09:53;41.20;;;10.97;;
13520;SDS011;6832;51.186;3.236;2023-04-28T04:12:20;38.03;;;10.67;;
13520;SDS011;6832;51.186;3.236;2023-04-28T04:14:47;38.17;;;10.40;;
13520;SDS011;6832;51.186;3.236;2023-04-28T04:17:15;38.23;;;10.77;;
13520;SDS011;6832;51.186;3.236;2023-04-28T04:19:42;34.17;;;9.97;;
13520;SDS011;6832;51.186;3.236;2023-04-28T04:22:09;47.57;;;11.40;;
13520;SDS011;6832;51.186;3.236;2023-04-28T04:24:36;42.27;;;11.23;;
13520;SDS011;6832;51.186;3.236;2023-04-28T04:27:03;41.67;;;10.70;;
13520;SDS011;6832;51.186;3.236;2023-04-28T04:29:30;49.70;;;11.23;;
13520;SDS011;6832;51.186;3.236;2023-04-28T04:31:57;36.20;;;10.97;;
13520;SDS011;6832;51.186;3.236;2023-04-28T04:34:25;35.00;;;10.10;;
13520;SDS011;6832;51.186;3.236;2023-04-28T04:36:52;39.10;;;10.90;;
13520;SDS011;6832;51.186;3.236;2023-04-28T04:39:19;42.17;;;11.63;;
13520;SDS011;6832;51.186;3.236;2023-04-28T04:41:46;50.30;;;11.60;;
13520;SDS011;6832;51.186;3.236;2023-04-28T04:44:13;40.23;;;11.27;;
13520;SDS011;6832;51.186;3.236;2023-04-28T04:46:40;42.30;;;11.07;;
13520;SDS011;6832;51.186;3.236;2023-04-28T04:49:07;35.60;;;10.57;;
13520;SDS011;6832;51.186;3.236;2023-04-28T04:51:35;33.23;;;10.33;;
13520;SDS011;6832;51.186;3.236;2023-04-28T04:54:02;45.83;;;11.83;;
13520;SDS011;6832;51.186;3.236;2023-04-28T04:56:29;33.17;;;10.40;;
13520;SDS011;6832;51.186;3.236;2023-04-28T04:58:57;30.70;;;10.07;;
13520;SDS011;6832;51.186;3.236;2023-04-28T05:01:23;56.40;;;12.33;;
13520;SDS011;6832;51.186;3.236;2023-04-28T05:03:50;48.70;;;11.80;;
13520;SDS011;6832;51.186;3.236;2023-04-28T05:06:17;40.83;;;11.43;;
13520;SDS011;6832;51.186;3.236;2023-04-28T05:08:46;42.80;;;11.40;;
13520;SDS011;6832;51.186;3.236;2023-04-28T05:11:13;43.93;;;11.27;;
13520;SDS011;6832;51.186;3.236;2023-04-28T05:13:41;32.33;;;10.60;;
13520;SDS011;6832;51.186;3.236;2023-04-28T05:16:07;35.40;;;9.80;;
13520;SDS011;6832;51.186;3.236;2023-04-28T05:18:35;48.77;;;11.43;;
13520;SDS011;6832;51.186;3.236;2023-04-28T05:21:02;39.90;;;11.03;;
13520;SDS011;6832;51.186;3.236;2023-04-28T05:23:29;38.70;;;10.93;;
13520;SDS011;6832;51.186;3.236;2023-04-28T05:25:57;43.13;;;11.77;;
13520;SDS011;6832;51.186;3.236;2023-04-28T05:28:24;50.67;;;11.80;;
13520;SDS011;6832;51.186;3.236;2023-04-28T05:30:51;61.47;;;12.93;;
13520;SDS011;6832;51.186;3.236;2023-04-28T05:33:18;35.10;;;10.70;;
13520;SDS011;6832;51.186;3.236;2023-04-28T05:35:45;48.37;;;10.80;;
13520;SDS011;6832;51.186;3.236;2023-04-28T05:38:12;55.40;;;11.70;;
13520;SDS011;6832;51.186;3.236;2023-04-28T05:40:39;39.23;;;10.43;;
13520;SDS011;6832;51.186;3.236;2023-04-28T05:43:08;35.57;;;11.03;;
13520;SDS011;6832;51.186;3.236;2023-04-28T05:45:35;35.87;;;9.90;;
13520;SDS011;6832;51.186;3.236;2023-04-28T05:48:03;36.87;;;9.93;;
13520;SDS011;6832;51.186;3.236;2023-04-28T05:50:30;72.00;;;13.70;;
13520;SDS011;6832;51.186;3.236;2023-04-28T05:52:57;36.80;;;9.73;;
13520;SDS011;6832;51.186;3.236;2023-04-28T05:55:24;62.73;;;11.93;;
13520;SDS011;6832;51.186;3.236;2023-04-28T05:57:52;41.77;;;9.73;;
13520;SDS011;6832;51.186;3.236;2023-04-28T06:00:20;52.90;;;11.70;;
13520;SDS011;6832;51.186;3.236;2023-04-28T06:02:48;29.00;;;8.93;;
13520;SDS011;6832;51.186;3.236;2023-04-28T06:05:15;34.43;;;9.47;;
13520;SDS011;6832;51.186;3.236;2023-04-28T06:07:44;36.83;;;9.53;;
13520;SDS011;6832;51.186;3.236;2023-04-28T06:10:10;39.60;;;9.40;;
13520;SDS011;6832;51.186;3.236;2023-04-28T06:12:37;38.47;;;9.37;;
13520;SDS011;6832;51.186;3.236;2023-04-28T06:15:06;57.37;;;10.53;;
13520;SDS011;6832;51.186;3.236;2023-04-28T06:17:34;41.97;;;9.10;;
13520;SDS011;6832;51.186;3.236;2023-04-28T06:20:04;40.80;;;8.57;;
13520;SDS011;6832;51.186;3.236;2023-04-28T06:22:32;33.43;;;8.67;;
13520;SDS011;6832;51.186;3.236;2023-04-28T06:24:59;33.93;;;8.20;;
13520;SDS011;6832;51.186;3.236;2023-04-28T06:27:26;38.13;;;8.43;;
13520;SDS011;6832;51.186;3.236;2023-04-28T06:29:56;33.93;;;7.73;;
13520;SDS011;6832;51.186;3.236;2023-04-28T06:32:23;36.10;;;7.53;;
13520;SDS011;6832;51.186;3.236;2023-04-28T06:34:52;40.70;;;8.27;;
13520;SDS011;6832;51.186;3.236;2023-04-28T06:37:19;37.17;;;7.87;;
13520;SDS011;6832;51.186;3.236;2023-04-28T06:39:46;39.43;;;8.10;;
13520;SDS011;6832;51.186;3.236;2023-04-28T06:42:13;32.97;;;7.33;;
13520;SDS011;6832;51.186;3.236;2023-04-28T06:44:42;36.43;;;7.53;;
13520;SDS011;6832;51.186;3.236;2023-04-28T06:47:09;45.77;;;8.20;;
13520;SDS011;6832;51.186;3.236;2023-04-28T06:49:36;39.93;;;7.57;;
13520;SDS011;6832;51.186;3.236;2023-04-28T06:52:05;43.33;;;7.73;;
13520;SDS011;6832;51.186;3.236;2023-04-28T06:54:32;39.70;;;7.73;;
13520;SDS011;6832;51.186;3.236;2023-04-28T06:57:01;48.40;;;8.20;;
13520;SDS011;6832;51.186;3.236;2023-04-28T06:59:28;29.93;;;6.57;;
13520;SDS011;6832;51.186;3.236;2023-04-28T07:01:57;37.13;;;7.37;;
13520;SDS011;6832;51.186;3.236;2023-04-28T07:04:24;43.47;;;7.77;;
13520;SDS011;6832;51.186;3.236;2023-04-28T07:06:53;41.37;;;7.47;;
13520;SDS011;6832;51.186;3.236;2023-04-28T07:09:22;33.93;;;7.07;;
13520;SDS011;6832;51.186;3.236;2023-04-28T07:11:48;38.23;;;7.43;;
13520;SDS011;6832;51.186;3.236;2023-04-28T07:14:15;39.63;;;7.93;;
13520;SDS011;6832;51.186;3.236;2023-04-28T07:16:42;41.20;;;7.47;;
13520;SDS011;6832;51.186;3.236;2023-04-28T07:19:09;52.73;;;8.17;;
13520;SDS011;6832;51.186;3.236;2023-04-28T07:21:36;32.60;;;6.60;;
13520;SDS011;6832;51.186;3.236;2023-04-28T07:24:03;53.53;;;8.47;;
13520;SDS011;6832;51.186;3.236;2023-04-28T07:26:33;30.83;;;6.07;;
13520;SDS011;6832;51.186;3.236;2023-04-28T07:29:00;38.43;;;6.97;;
13520;SDS011;6832;51.186;3.236;2023-04-28T07:31:27;30.50;;;6.57;;
13520;SDS011;6832;51.186;3.236;2023-04-28T07:33:54;38.00;;;6.67;;
13520;SDS011;6832;51.186;3.236;2023-04-28T07:36:22;33.33;;;6.40;;
13520;SDS011;6832;51.186;3.236;2023-04-28T07:38:49;44.60;;;7.30;;
13520;SDS011;6832;51.186;3.236;2023-04-28T07:41:15;42.57;;;7.30;;
13520;SDS011;6832;51.186;3.236;2023-04-28T07:43:44;39.00;;;7.20;;
13520;SDS011;6832;51.186;3.236;2023-04-28T07:46:11;38.20;;;7.17;;
13520;SDS011;6832;51.186;3.236;2023-04-28T07:48:38;35.57;;;6.83;;
13520;SDS011;6832;51.186;3.236;2023-04-28T07:51:05;33.30;;;6.47;;
13520;SDS011;6832;51.186;3.236;2023-04-28T07:53:32;39.10;;;6.57;;
13520;SDS011;6832;51.186;3.236;2023-04-28T07:55:59;66.37;;;9.07;;
13520;SDS011;6832;51.186;3.236;2023-04-28T07:58:26;27.30;;;5.53;;
13520;SDS011;6832;51.186;3.236;2023-04-28T08:00:55;36.07;;;6.60;;
13520;SDS011;6832;51.186;3.236;2023-04-28T08:03:22;29.73;;;6.20;;
13520;SDS011;6832;51.186;3.236;2023-04-28T08:05:49;31.00;;;6.03;;
13520;SDS011;6832;51.186;3.236;2023-04-28T08:08:16;28.07;;;5.87;;
13520;SDS011;6832;51.186;3.236;2023-04-28T08:10:43;32.23;;;6.13;;
13520;SDS011;6832;51.186;3.236;2023-04-28T08:13:10;31.93;;;6.03;;
13520;SDS011;6832;51.186;3.236;2023-04-28T08:15:37;31.13;;;5.80;;
13520;SDS011;6832;51.186;3.236;2023-04-28T08:18:08;42.27;;;6.93;;
13520;SDS011;6832;51.186;3.236;2023-04-28T08:20:35;29.77;;;5.83;;
13520;SDS011;6832;51.186;3.236;2023-04-28T08:23:02;31.87;;;5.90;;
13520;SDS011;6832;51.186;3.236;2023-04-28T08:25:29;45.37;;;6.77;;
13520;SDS011;6832;51.186;3.236;2023-04-28T08:27:56;31.70;;;6.23;;
13520;SDS011;6832;51.186;3.236;2023-04-28T08:30:23;26.80;;;5.70;;
13520;SDS011;6832;51.186;3.236;2023-04-28T08:32:50;40.83;;;6.70;;
13520;SDS011;6832;51.186;3.236;2023-04-28T08:35:19;33.83;;;6.17;;
13520;SDS011;6832;51.186;3.236;2023-04-28T08:37:46;31.30;;;5.80;;
13520;SDS011;6832;51.186;3.236;2023-04-28T08:40:14;32.70;;;6.13;;
13520;SDS011;6832;51.186;3.236;2023-04-28T08:42:41;36.43;;;6.13;;
13520;SDS011;6832;51.186;3.236;2023-04-28T08:45:11;35.37;;;6.17;;
13520;SDS011;6832;51.186;3.236;2023-04-28T08:47:39;36.20;;;6.30;;
13520;SDS011;6832;51.186;3.236;2023-04-28T08:50:10;27.23;;;5.43;;
13520;SDS011;6832;51.186;3.236;2023-04-28T08:52:39;25.20;;;5.30;;
13520;SDS011;6832;51.186;3.236;2023-04-28T08:55:08;30.27;;;6.13;;
13520;SDS011;6832;51.186;3.236;2023-04-28T08:57:37;19.63;;;4.47;;
13520;SDS011;6832;51.186;3.236;2023-04-28T09:00:06;21.17;;;5.20;;
13520;SDS011;6832;51.186;3.236;2023-04-28T09:02:35;22.87;;;5.43;;
13520;SDS011;6832;51.186;3.236;2023-04-28T09:05:05;36.73;;;6.60;;
13520;SDS011;6832;51.186;3.236;2023-04-28T09:07:33;27.13;;;5.73;;
13520;SDS011;6832;51.186;3.236;2023-04-28T09:10:18;26.07;;;5.50;;
13520;SDS011;6832;51.186;3.236;2023-04-28T09:12:46;54.07;;;7.97;;
13520;SDS011;6832;51.186;3.236;2023-04-28T09:15:26;35.33;;;6.10;;
13520;SDS011;6832;51.186;3.236;2023-04-28T09:17:56;30.30;;;5.87;;
13520;SDS011;6832;51.186;3.236;2023-04-28T09:20:24;22.93;;;5.33;;
13520;SDS011;6832;51.186;3.236;2023-04-28T09:22:53;38.83;;;6.57;;
13520;SDS011;6832;51.186;3.236;2023-04-28T09:25:22;27.83;;;5.83;;
13520;SDS011;6832;51.186;3.236;2023-04-28T09:27:51;32.17;;;6.10;;
13520;SDS011;6832;51.186;3.236;2023-04-28T09:30:18;21.13;;;5.27;;
13520;SDS011;6832;51.186;3.236;2023-04-28T09:32:46;32.10;;;6.17;;
13520;SDS011;6832;51.186;3.236;2023-04-28T09:35:37;28.40;;;5.73;;
13520;SDS011;6832;51.186;3.236;2023-04-28T09:38:04;30.50;;;5.90;;
13520;SDS011;6832;51.186;3.236;2023-04-28T09:40:33;34.23;;;6.20;;
13520;SDS011;6832;51.186;3.236;2023-04-28T09:43:21;24.60;;;5.50;;
13520;SDS011;6832;51.186;3.236;2023-04-28T09:45:49;42.07;;;6.80;;
13520;SDS011;6832;51.186;3.236;2023-04-28T09:48:16;22.17;;;5.17;;
13520;SDS011;6832;51.186;3.236;2023-04-28T09:50:51;37.00;;;6.70;;
13520;SDS011;6832;51.186;3.236;2023-04-28T09:53:20;43.37;;;7.10;;
13520;SDS011;6832;51.186;3.236;2023-04-28T09:55:52;30.90;;;6.37;;
13520;SDS011;6832;51.186;3.236;2023-04-28T09:58:20;21.17;;;5.50;;
13520;SDS011;6832;51.186;3.236;2023-04-28T10:00:50;21.40;;;5.70;;
13520;SDS011;6832;51.186;3.236;2023-04-28T10:03:21;28.60;;;6.30;;
13520;SDS011;6832;51.186;3.236;2023-04-28T10:05:49;23.27;;;5.53;;
13520;SDS011;6832;51.186;3.236;2023-04-28T10:08:17;26.20;;;6.00;;
13520;SDS011;6832;51.186;3.236;2023-04-28T10:10:46;27.07;;;6.63;;
13520;SDS011;6832;51.186;3.236;2023-04-28T10:13:16;18.20;;;5.00;;
13520;SDS011;6832;51.186;3.236;2023-04-28T10:15:44;22.27;;;5.43;;
13520;SDS011;6832;51.186;3.236;2023-04-28T10:18:11;40.30;;;7.40;;
13520;SDS011;6832;51.186;3.236;2023-04-28T10:20:40;27.07;;;6.13;;
13520;SDS011;6832;51.186;3.236;2023-04-28T10:26:00;31.83;;;6.63;;
13520;SDS011;6832;51.186;3.236;2023-04-28T10:28:30;27.17;;;6.67;;
13520;SDS011;6832;51.186;3.236;2023-04-28T10:31:10;18.23;;;5.10;;
13520;SDS011;6832;51.186;3.236;2023-04-28T10:33:38;27.93;;;6.23;;
13520;SDS011;6832;51.186;3.236;2023-04-28T10:36:06;33.30;;;6.40;;
13520;SDS011;6832;51.186;3.236;2023-04-28T10:38:33;46.73;;;7.97;;
13520;SDS011;6832;51.186;3.236;2023-04-28T10:41:02;28.40;;;6.57;;
13520;SDS011;6832;51.186;3.236;2023-04-28T10:43:34;25.77;;;6.63;;
13520;SDS011;6832;51.186;3.236;2023-04-28T10:46:06;33.33;;;6.70;;
13520;SDS011;6832;51.186;3.236;2023-04-28T10:51:28;21.60;;;6.03;;
13520;SDS011;6832;51.186;3.236;2023-04-28T10:54:15;28.23;;;6.40;;
13520;SDS011;6832;51.186;3.236;2023-04-28T10:59:50;24.73;;;6.30;;
13520;SDS011;6832;51.186;3.236;2023-04-28T11:05:11;24.23;;;6.10;;
13520;SDS011;6832;51.186;3.236;2023-04-28T11:07:39;31.83;;;6.90;;
13520;SDS011;6832;51.186;3.236;2023-04-28T11:10:10;23.67;;;6.10;;
13520;SDS011;6832;51.186;3.236;2023-04-28T11:12:37;54.50;;;8.37;;
13520;SDS011;6832;51.186;3.236;2023-04-28T11:15:44;26.63;;;6.13;;
13520;SDS011;6832;51.186;3.236;2023-04-28T11:18:29;19.70;;;5.60;;
13520;SDS011;6832;51.186;3.236;2023-04-28T11:21:04;38.67;;;7.70;;
13520;SDS011;6832;51.186;3.236;2023-04-28T11:23:31;22.40;;;6.17;;
13520;SDS011;6832;51.186;3.236;2023-04-28T11:25:58;29.33;;;6.40;;
13520;SDS011;6832;51.186;3.236;2023-04-28T11:28:25;26.33;;;6.17;;
13520;SDS011;6832;51.186;3.236;2023-04-28T11:30:54;22.90;;;6.13;;
13520;SDS011;6832;51.186;3.236;2023-04-28T11:33:36;18.83;;;5.37;;
13520;SDS011;6832;51.186;3.236;2023-04-28T11:36:04;27.87;;;6.53;;
13520;SDS011;6832;51.186;3.236;2023-04-28T11:38:41;31.20;;;6.87;;
13520;SDS011;6832;51.186;3.236;2023-04-28T11:41:08;26.87;;;6.03;;
13520;SDS011;6832;51.186;3.236;2023-04-28T11:43:35;29.60;;;6.20;;
13520;SDS011;6832;51.186;3.236;2023-04-28T11:46:04;31.23;;;6.37;;
13520;SDS011;6832;51.186;3.236;2023-04-28T11:48:33;23.23;;;5.70;;
13520;SDS011;6832;51.186;3.236;2023-04-28T11:51:00;25.90;;;6.13;;
13520;SDS011;6832;51.186;3.236;2023-04-28T11:53:39;20.33;;;6.20;;
13520;SDS011;6832;51.186;3.236;2023-04-28T11:56:06;24.47;;;5.67;;
13520;SDS011;6832;51.186;3.236;2023-04-28T11:58:34;23.40;;;5.80;;
13520;SDS011;6832;51.186;3.236;2023-04-28T12:01:09;25.47;;;5.87;;
13520;SDS011;6832;51.186;3.236;2023-04-28T12:03:43;24.17;;;5.63;;
13520;SDS011;6832;51.186;3.236;2023-04-28T12:06:10;27.13;;;5.80;;
13520;SDS011;6832;51.186;3.236;2023-04-28T12:08:37;20.63;;;5.50;;
13520;SDS011;6832;51.186;3.236;2023-04-28T12:11:07;32.53;;;6.63;;
13520;SDS011;6832;51.186;3.236;2023-04-28T12:13:36;21.87;;;5.50;;
13520;SDS011;6832;51.186;3.236;2023-04-28T12:16:04;28.03;;;5.93;;
13520;SDS011;6832;51.186;3.236;2023-04-28T12:18:34;23.67;;;5.77;;
13520;SDS011;6832;51.186;3.236;2023-04-28T12:21:01;27.30;;;6.23;;
13520;SDS011;6832;51.186;3.236;2023-04-28T12:23:29;25.07;;;6.43;;
13520;SDS011;6832;51.186;3.236;2023-04-28T12:25:57;18.87;;;5.13;;
13520;SDS011;6832;51.186;3.236;2023-04-28T12:28:34;20.63;;;5.27;;
13520;SDS011;6832;51.186;3.236;2023-04-28T12:31:04;26.23;;;6.00;;
13520;SDS011;6832;51.186;3.236;2023-04-28T12:33:34;24.03;;;5.43;;
13520;SDS011;6832;51.186;3.236;2023-04-28T12:36:02;28.43;;;6.20;;
13520;SDS011;6832;51.186;3.236;2023-04-28T12:38:31;27.93;;;5.90;;
13520;SDS011;6832;51.186;3.236;2023-04-28T12:40:58;27.73;;;6.00;;
13520;SDS011;6832;51.186;3.236;2023-04-28T12:43:25;33.00;;;6.57;;
13520;SDS011;6832;51.186;3.236;2023-04-28T12:45:53;31.07;;;6.37;;
13520;SDS011;6832;51.186;3.236;2023-04-28T12:48:20;23.43;;;6.03;;
13520;SDS011;6832;51.186;3.236;2023-04-28T12:50:50;22.53;;;6.43;;
13520;SDS011;6832;51.186;3.236;2023-04-28T12:53:17;20.00;;;5.57;;
13520;SDS011;6832;51.186;3.236;2023-04-28T12:55:44;29.93;;;6.97;;
13520;SDS011;6832;51.186;3.236;2023-04-28T12:58:11;40.20;;;7.87;;
13520;SDS011;6832;51.186;3.236;2023-04-28T13:00:38;29.87;;;7.40;;
13520;SDS011;6832;51.186;3.236;2023-04-28T13:03:05;29.37;;;6.87;;
13520;SDS011;6832;51.186;3.236;2023-04-28T13:05:32;28.93;;;7.30;;
13520;SDS011;6832;51.186;3.236;2023-04-28T13:08:01;25.00;;;6.53;;
13520;SDS011;6832;51.186;3.236;2023-04-28T13:10:28;36.40;;;7.93;;
13520;SDS011;6832;51.186;3.236;2023-04-28T13:12:55;38.37;;;7.77;;
13520;SDS011;6832;51.186;3.236;2023-04-28T13:15:22;39.87;;;7.80;;
13520;SDS011;6832;51.186;3.236;2023-04-28T13:17:49;61.83;;;9.30;;
13520;SDS011;6832;51.186;3.236;2023-04-28T13:20:16;23.70;;;6.50;;
13520;SDS011;6832;51.186;3.236;2023-04-28T13:22:43;24.43;;;6.57;;
13520;SDS011;6832;51.186;3.236;2023-04-28T13:25:12;27.90;;;7.13;;
13520;SDS011;6832;51.186;3.236;2023-04-28T13:27:39;27.73;;;7.03;;
13520;SDS011;6832;51.186;3.236;2023-04-28T13:30:07;31.00;;;7.17;;
13520;SDS011;6832;51.186;3.236;2023-04-28T13:32:35;37.17;;;7.67;;
13520;SDS011;6832;51.186;3.236;2023-04-28T13:35:02;42.53;;;8.07;;
13520;SDS011;6832;51.186;3.236;2023-04-28T13:37:30;30.53;;;6.90;;
13520;SDS011;6832;51.186;3.236;2023-04-28T13:39:57;37.67;;;7.77;;
13520;SDS011;6832;51.186;3.236;2023-04-28T13:42:25;30.87;;;7.27;;
13520;SDS011;6832;51.186;3.236;2023-04-28T13:44:55;25.17;;;6.10;;
13520;SDS011;6832;51.186;3.236;2023-04-28T13:47:22;47.27;;;8.40;;
13520;SDS011;6832;51.186;3.236;2023-04-28T13:49:49;29.60;;;7.07;;
13520;SDS011;6832;51.186;3.236;2023-04-28T13:52:16;23.77;;;6.07;;
13520;SDS011;6832;51.186;3.236;2023-04-28T13:54:43;31.00;;;6.63;;
13520;SDS011;6832;51.186;3.236;2023-04-28T13:57:10;27.57;;;6.17;;
13520;SDS011;6832;51.186;3.236;2023-04-28T13:59:39;27.90;;;6.60;;
13520;SDS011;6832;51.186;3.236;2023-04-28T14:02:05;25.17;;;6.40;;
13520;SDS011;6832;51.186;3.236;2023-04-28T14:04:33;42.33;;;7.73;;
13520;SDS011;6832;51.186;3.236;2023-04-28T14:07:00;27.90;;;6.40;;
13520;SDS011;6832;51.186;3.236;2023-04-28T14:09:27;22.50;;;5.50;;
13520;SDS011;6832;51.186;3.236;2023-04-28T14:11:54;23.87;;;5.67;;
13520;SDS011;6832;51.186;3.236;2023-04-28T14:14:22;27.87;;;5.83;;
13520;SDS011;6832;51.186;3.236;2023-04-28T14:16:51;23.17;;;5.57;;
13520;SDS011;6832;51.186;3.236;2023-04-28T14:19:17;23.40;;;5.83;;
13520;SDS011;6832;51.186;3.236;2023-04-28T14:21:45;38.70;;;7.13;;
13520;SDS011;6832;51.186;3.236;2023-04-28T14:24:12;24.33;;;5.53;;
13520;SDS011;6832;51.186;3.236;2023-04-28T14:26:39;38.90;;;7.03;;
13520;SDS011;6832;51.186;3.236;2023-04-28T14:29:08;24.47;;;5.80;;
13520;SDS011;6832;51.186;3.236;2023-04-28T14:31:35;20.13;;;5.40;;
13520;SDS011;6832;51.186;3.236;2023-04-28T14:34:04;22.73;;;5.73;;
13520;SDS011;6832;51.186;3.236;2023-04-28T14:36:31;22.87;;;5.27;;
13520;SDS011;6832;51.186;3.236;2023-04-28T14:38:58;38.87;;;7.13;;
13520;SDS011;6832;51.186;3.236;2023-04-28T14:41:25;27.17;;;6.03;;
13520;SDS011;6832;51.186;3.236;2023-04-28T14:43:52;20.17;;;5.40;;
13520;SDS011;6832;51.186;3.236;2023-04-28T14:46:19;25.40;;;6.00;;
13520;SDS011;6832;51.186;3.236;2023-04-28T14:48:50;22.93;;;6.20;;
13520;SDS011;6832;51.186;3.236;2023-04-28T14:51:19;20.90;;;5.60;;
13520;SDS011;6832;51.186;3.236;2023-04-28T14:53:46;19.97;;;4.87;;
13520;SDS011;6832;51.186;3.236;2023-04-28T14:56:13;27.57;;;5.50;;
13520;SDS011;6832;51.186;3.236;2023-04-28T14:58:41;27.53;;;6.13;;
13520;SDS011;6832;51.186;3.236;2023-04-28T15:01:08;23.73;;;5.63;;